Time;durP1;ratioP1;P1;durP2;ratioP2;P2;SDS_P1;SDS_P2;PMS_P1;PMS_P2;Temp;Humidity;BMP_temperature;BMP_pressure;BME280_temperature;BME280_humidity;BME280_pressure;Samples;Min_cycle;Max_cycle;Signal;HPM_P1;HPM_P2
2023/03/30 00:01:19;;;;;;;4.82;2.08;;;;;;;;;;5073404;28;20024;-57
2023/03/30 00:03:46;;;;;;;11.13;3.10;;;;;;;;;;5073721;28;20508;-57
2023/03/30 00:06:13;;;;;;;5.07;1.17;;;;;;;;;;5073705;28;20542;-55
2023/03/30 00:08:39;;;;;;;8.10;1.38;;;;;;;;;;5073593;28;20024;-57
2023/03/30 00:11:07;;;;;;;7.80;2.72;;;;;;;;;;5073687;28;20028;-57
2023/03/30 00:13:34;;;;;;;3.30;1.55;;;;;;;;;;5074164;28;20079;-57
2023/03/30 00:16:00;;;;;;;7.03;2.33;;;;;;;;;;5074258;28;20049;-57
2023/03/30 00:18:28;;;;;;;6.50;1.45;;;;;;;;;;5073445;28;20021;-57
2023/03/30 00:20:54;;;;;;;3.85;0.90;;;;;;;;;;5073447;28;20032;-57
2023/03/30 00:23:21;;;;;;;8.52;2.30;;;;;;;;;;5073826;28;20035;-56
2023/03/30 00:25:47;;;;;;;3.78;1.58;;;;;;;;;;5074005;28;20367;-57
2023/03/30 00:28:13;;;;;;;12.43;2.53;;;;;;;;;;5073387;28;20029;-57
2023/03/30 00:30:39;;;;;;;13.82;2.10;;;;;;;;;;5073434;28;20035;-57
2023/03/30 00:33:05;;;;;;;9.18;1.67;;;;;;;;;;5073750;28;20098;-57
2023/03/30 00:35:31;;;;;;;9.45;1.65;;;;;;;;;;5073330;28;20481;-57
2023/03/30 00:38:00;;;;;;;6.72;2.22;;;;;;;;;;5073133;28;20025;-57
2023/03/30 00:40:27;;;;;;;8.77;2.13;;;;;;;;;;5077186;28;20025;-58
2023/03/30 00:42:57;;;;;;;5.13;1.65;;;;;;;;;;5077375;28;20446;-57
2023/03/30 00:45:23;;;;;;;;;;;;;;;;;;5078071;28;20517;-58
2023/03/30 00:47:55;;;;;;;5.45;2.17;;;;;;;;;;5077269;28;19951;-58
2023/03/30 00:50:23;;;;;;;9.98;2.53;;;;;;;;;;5077221;28;20035;-55
2023/03/30 00:52:52;;;;;;;8.60;1.70;;;;;;;;;;5077708;28;20419;-56
2023/03/30 00:55:19;;;;;;;6.93;2.17;;;;;;;;;;5077606;28;20082;-57
2023/03/30 00:57:45;;;;;;;9.57;2.92;;;;;;;;;;5077546;28;20025;-57
2023/03/30 01:00:12;;;;;;;2.72;1.60;;;;;;;;;;5076940;28;20374;-59
2023/03/30 01:02:41;;;;;;;9.55;2.45;;;;;;;;;;5077021;28;20024;-57
2023/03/30 01:05:08;;;;;;;6.07;2.33;;;;;;;;;;5076613;28;20029;-57
2023/03/30 01:07:34;;;;;;;7.60;2.13;;;;;;;;;;5077362;28;20641;-57
2023/03/30 01:10:01;;;;;;;3.88;1.80;;;;;;;;;;5076843;28;20047;-57
2023/03/30 01:12:28;;;;;;;7.35;1.45;;;;;;;;;;5077105;28;20039;-57
2023/03/30 01:14:55;;;;;;;4.22;1.92;;;;;;;;;;5076818;28;20382;-57
2023/03/30 01:17:31;;;;;;;3.20;1.80;;;;;;;;;;5076299;28;20127;-57
2023/03/30 01:20:11;;;;;;;4.45;2.30;;;;;;;;;;5076458;28;20028;-58
2023/03/30 01:22:55;;;;;;;4.23;2.03;;;;;;;;;;5077454;28;20070;-57
2023/03/30 01:25:40;;;;;;;10.63;1.90;;;;;;;;;;5076727;28;20613;-55
2023/03/30 01:28:15;;;;;;;8.20;2.67;;;;;;;;;;5076463;28;20090;-57
2023/03/30 01:31:00;;;;;;;12.07;2.50;;;;;;;;;;5076475;28;20059;-59
2023/03/30 01:33:28;;;;;;;6.28;2.40;;;;;;;;;;5076620;28;20032;-56
2023/03/30 01:36:13;;;;;;;4.22;2.05;;;;;;;;;;5076631;28;20189;-56
2023/03/30 01:39:02;;;;;;;7.53;2.30;;;;;;;;;;5076520;28;20063;-57
2023/03/30 01:41:37;;;;;;;11.57;2.30;;;;;;;;;;5056808;28;20033;-57
2023/03/30 01:44:11;;;;;;;8.85;1.95;;;;;;;;;;5076556;28;20131;-56
2023/03/30 01:46:39;;;;;;;7.82;1.15;;;;;;;;;;5076483;28;20458;-57
2023/03/30 01:49:23;;;;;;;4.72;1.90;;;;;;;;;;5076085;28;20025;-57
2023/03/30 01:52:08;;;;;;;8.63;3.17;;;;;;;;;;5076401;28;20458;-57
2023/03/30 01:54:37;;;;;;;4.78;1.85;;;;;;;;;;5075644;28;20071;-57
2023/03/30 01:57:15;;;;;;;13.18;3.60;;;;;;;;;;5076295;28;20024;-57
2023/03/30 01:59:45;;;;;;;6.38;2.85;;;;;;;;;;5075685;28;20103;-57
2023/03/30 02:02:13;;;;;;;6.32;2.38;;;;;;;;;;5076475;28;20048;-57
2023/03/30 02:04:41;;;;;;;17.85;2.35;;;;;;;;;;5075801;28;20036;-57
2023/03/30 02:07:10;;;;;;;5.13;2.03;;;;;;;;;;5075754;28;20477;-57
2023/03/30 02:09:38;;;;;;;6.18;2.67;;;;;;;;;;5075737;28;20028;-57
2023/03/30 02:12:04;;;;;;;9.48;2.40;;;;;;;;;;5075687;28;20031;-57
2023/03/30 02:14:32;;;;;;;5.88;2.25;;;;;;;;;;5075873;28;20063;-57
2023/03/30 02:17:01;;;;;;;7.68;2.08;;;;;;;;;;5075523;28;20467;-57
2023/03/30 02:19:28;;;;;;;8.48;3.15;;;;;;;;;;5075803;28;20370;-57
2023/03/30 02:21:55;;;;;;;4.72;2.22;;;;;;;;;;5075902;28;20040;-56
2023/03/30 02:24:23;;;;;;;4.80;1.75;;;;;;;;;;5075376;28;20051;-58
2023/03/30 02:26:50;;;;;;;7.80;3.85;;;;;;;;;;5075932;28;20115;-57
2023/03/30 02:29:17;;;;;;;11.65;2.17;;;;;;;;;;5075361;28;20028;-57
2023/03/30 02:31:45;;;;;;;4.57;1.77;;;;;;;;;;5075267;28;20119;-57
2023/03/30 02:34:20;;;;;;;6.82;1.60;;;;;;;;;;5075148;28;20028;-57
2023/03/30 02:37:08;;;;;;;5.53;1.67;;;;;;;;;;5075777;28;20021;-56
2023/03/30 02:39:43;;;;;;;3.80;1.40;;;;;;;;;;5075481;28;20024;-57
2023/03/30 02:42:09;;;;;;;3.15;1.42;;;;;;;;;;5075423;28;20028;-56
2023/03/30 02:44:51;;;;;;;4.60;1.75;;;;;;;;;;5075000;28;20039;-57
2023/03/30 02:47:36;;;;;;;4.03;1.20;;;;;;;;;;5075387;28;20053;-57
2023/03/30 02:50:05;;;;;;;6.57;2.30;;;;;;;;;;5075601;28;20034;-57
2023/03/30 02:52:39;;;;;;;5.45;2.83;;;;;;;;;;5075210;28;20044;-55
2023/03/30 02:55:15;;;;;;;4.38;1.92;;;;;;;;;;5075201;28;20028;-55
2023/03/30 02:58:04;;;;;;;3.55;1.58;;;;;;;;;;5075527;28;20029;-57
2023/03/30 03:00:39;;;;;;;11.07;2.03;;;;;;;;;;5069222;28;20373;-56
2023/03/30 03:03:15;;;;;;;8.13;2.65;;;;;;;;;;5074200;28;20025;-55
2023/03/30 03:05:42;;;;;;;7.78;2.25;;;;;;;;;;5075123;28;20043;-57
2023/03/30 03:08:08;;;;;;;6.95;2.75;;;;;;;;;;5075667;28;20028;-57
2023/03/30 03:10:35;;;;;;;10.35;2.55;;;;;;;;;;5074609;28;20028;-58
2023/03/30 03:13:01;;;;;;;5.82;2.63;;;;;;;;;;5074979;28;20028;-57
2023/03/30 03:15:27;;;;;;;10.45;3.25;;;;;;;;;;5074833;28;20052;-57
2023/03/30 03:17:53;;;;;;;5.38;2.47;;;;;;;;;;5074815;28;20075;-57
2023/03/30 03:20:19;;;;;;;7.13;1.92;;;;;;;;;;5074377;28;20028;-57
2023/03/30 03:22:45;;;;;;;5.82;2.90;;;;;;;;;;5074550;28;20036;-57
2023/03/30 03:25:11;;;;;;;5.72;1.90;;;;;;;;;;5074502;28;20032;-57
2023/03/30 03:27:37;;;;;;;4.80;1.60;;;;;;;;;;5074953;28;20025;-57
2023/03/30 03:30:03;;;;;;;7.53;2.45;;;;;;;;;;5074191;28;20414;-57
2023/03/30 03:32:29;;;;;;;5.00;2.13;;;;;;;;;;5074192;28;20112;-57
2023/03/30 03:34:55;;;;;;;2.80;1.35;;;;;;;;;;5074177;28;20064;-58
2023/03/30 03:37:21;;;;;;;7.53;2.42;;;;;;;;;;5074593;28;20028;-57
2023/03/30 03:39:47;;;;;;;10.80;2.53;;;;;;;;;;5074637;28;20504;-58
2023/03/30 03:42:13;;;;;;;10.05;2.17;;;;;;;;;;5074056;28;20041;-57
2023/03/30 03:44:39;;;;;;;4.35;2.50;;;;;;;;;;5073941;28;20028;-57
2023/03/30 03:47:05;;;;;;;12.68;3.25;;;;;;;;;;5074310;28;20363;-57
2023/03/30 03:49:31;;;;;;;8.32;2.75;;;;;;;;;;5074280;28;20091;-57
2023/03/30 03:51:57;;;;;;;7.40;2.60;;;;;;;;;;5074197;28;20068;-56
2023/03/30 03:54:23;;;;;;;6.28;2.65;;;;;;;;;;5074271;28;20082;-57
2023/03/30 03:56:50;;;;;;;3.42;1.73;;;;;;;;;;5074209;28;20052;-58
2023/03/30 03:59:16;;;;;;;3.58;1.50;;;;;;;;;;5073816;28;20020;-56
2023/03/30 04:01:42;;;;;;;10.15;2.35;;;;;;;;;;5073816;28;20103;-58
2023/03/30 04:04:08;;;;;;;5.80;1.90;;;;;;;;;;5073712;28;20032;-57
2023/03/30 04:06:34;;;;;;;3.03;1.85;;;;;;;;;;5073809;28;20033;-57
2023/03/30 04:09:01;;;;;;;8.85;3.17;;;;;;;;;;5073728;28;20395;-55
2023/03/30 04:11:27;;;;;;;8.38;2.67;;;;;;;;;;5073696;28;20029;-57
2023/03/30 04:13:53;;;;;;;6.22;2.30;;;;;;;;;;5073508;28;20020;-58
2023/03/30 04:16:19;;;;;;;7.25;2.90;;;;;;;;;;5074487;28;20371;-58
2023/03/30 04:18:45;;;;;;;5.40;2.65;;;;;;;;;;5073565;28;20377;-58
2023/03/30 04:21:16;;;;;;;4.70;2.08;;;;;;;;;;5074078;28;20024;-57
2023/03/30 04:23:44;;;;;;;7.70;2.60;;;;;;;;;;5073600;28;20032;-57
2023/03/30 04:26:12;;;;;;;5.97;2.95;;;;;;;;;;5073190;28;20028;-58
2023/03/30 04:28:39;;;;;;;7.57;2.67;;;;;;;;;;5074025;28;20029;-57
2023/03/30 04:31:09;;;;;;;5.75;2.13;;;;;;;;;;5073163;28;20029;-57
2023/03/30 04:33:36;;;;;;;8.20;3.50;;;;;;;;;;5073868;28;20418;-57
2023/03/30 04:36:03;;;;;;;13.48;4.00;;;;;;;;;;5074028;28;20141;-57
2023/03/30 04:38:29;;;;;;;16.10;9.13;;;;;;;;;;5073745;28;20059;-57
2023/03/30 04:40:55;;;;;;;13.88;5.63;;;;;;;;;;5073413;28;20048;-58
2023/03/30 04:43:22;;;;;;;33.35;16.75;;;;;;;;;;5073389;28;20024;-57
2023/03/30 04:45:49;;;;;;;30.38;15.50;;;;;;;;;;5073857;28;20094;-57
2023/03/30 04:48:15;;;;;;;16.30;5.47;;;;;;;;;;5073740;28;20418;-57
2023/03/30 04:50:42;;;;;;;9.38;4.10;;;;;;;;;;5073322;28;20371;-56
2023/03/30 04:53:09;;;;;;;7.80;2.40;;;;;;;;;;5073568;28;20033;-57
2023/03/30 04:55:35;;;;;;;5.60;2.10;;;;;;;;;;5073830;28;20090;-57
2023/03/30 04:58:01;;;;;;;9.57;2.35;;;;;;;;;;5073517;28;20032;-58
2023/03/30 05:00:27;;;;;;;11.75;3.10;;;;;;;;;;5073213;28;20024;-56
2023/03/30 05:02:53;;;;;;;9.35;2.85;;;;;;;;;;5072890;28;20478;-57
2023/03/30 05:05:20;;;;;;;8.05;2.50;;;;;;;;;;5073436;28;20040;-57
2023/03/30 05:07:46;;;;;;;7.50;2.08;;;;;;;;;;5073647;28;20031;-57
2023/03/30 05:10:12;;;;;;;8.00;5.30;;;;;;;;;;5073429;28;20116;-58
2023/03/30 05:12:38;;;;;;;14.80;8.73;;;;;;;;;;5073168;28;20028;-57
2023/03/30 05:15:04;;;;;;;9.07;4.38;;;;;;;;;;5072886;28;20056;-57
2023/03/30 05:17:33;;;;;;;9.95;4.90;;;;;;;;;;5073472;28;20147;-57
2023/03/30 05:20:00;;;;;;;8.18;2.80;;;;;;;;;;5072921;28;20020;-56
2023/03/30 05:22:25;;;;;;;11.18;2.75;;;;;;;;;;5073552;28;20028;-57
2023/03/30 05:24:52;;;;;;;9.32;2.72;;;;;;;;;;5074311;28;20115;-57
2023/03/30 05:27:18;;;;;;;7.60;2.80;;;;;;;;;;5076401;28;20025;-58
2023/03/30 05:29:44;;;;;;;5.80;2.53;;;;;;;;;;5076468;28;20115;-57
2023/03/30 05:32:10;;;;;;;14.05;2.72;;;;;;;;;;5077009;28;20032;-57
2023/03/30 05:34:36;;;;;;;8.48;2.88;;;;;;;;;;5076302;28;20145;-57
2023/03/30 05:37:02;;;;;;;7.60;2.78;;;;;;;;;;5076371;28;20136;-58
2023/03/30 05:39:28;;;;;;;7.57;3.70;;;;;;;;;;5076421;28;20021;-59
2023/03/30 05:41:54;;;;;;;5.90;2.90;;;;;;;;;;5076041;28;20025;-58
2023/03/30 05:44:21;;;;;;;10.65;3.25;;;;;;;;;;5076769;28;20036;-59
2023/03/30 05:46:47;;;;;;;7.88;3.83;;;;;;;;;;5077011;28;20025;-58
2023/03/30 05:49:13;;;;;;;4.47;2.47;;;;;;;;;;5075527;28;20413;-58
2023/03/30 05:51:39;;;;;;;14.05;3.60;;;;;;;;;;5076132;28;20060;-59
2023/03/30 05:54:05;;;;;;;10.52;3.00;;;;;;;;;;5076354;28;20028;-58
2023/03/30 05:56:31;;;;;;;17.33;3.28;;;;;;;;;;5076592;28;20035;-58
2023/03/30 05:58:57;;;;;;;10.77;3.42;;;;;;;;;;5075961;28;20104;-59
2023/03/30 06:01:24;;;;;;;7.30;3.20;;;;;;;;;;5076410;28;20024;-58
2023/03/30 06:03:50;;;;;;;14.98;2.88;;;;;;;;;;5075935;28;20036;-59
2023/03/30 06:06:16;;;;;;;6.63;2.05;;;;;;;;;;5075734;28;20041;-58
2023/03/30 06:08:43;;;;;;;5.05;2.40;;;;;;;;;;5076173;28;20473;-59
2023/03/30 06:11:10;;;;;;;7.60;3.42;;;;;;;;;;5076306;28;20078;-59
2023/03/30 06:13:36;;;;;;;7.38;3.15;;;;;;;;;;5075402;28;20025;-59
2023/03/30 06:16:02;;;;;;;10.60;3.03;;;;;;;;;;5075284;28;20082;-59
2023/03/30 06:18:27;;;;;;;6.70;2.50;;;;;;;;;;5075321;28;20025;-59
2023/03/30 06:20:53;;;;;;;5.72;2.30;;;;;;;;;;5075657;28;20102;-59
2023/03/30 06:23:20;;;;;;;7.70;2.63;;;;;;;;;;5075630;28;20070;-59
2023/03/30 06:25:51;;;;;;;7.22;2.90;;;;;;;;;;5075180;28;20032;-58
2023/03/30 06:28:17;;;;;;;10.75;2.83;;;;;;;;;;5075214;28;20029;-58
2023/03/30 06:30:44;;;;;;;6.90;2.33;;;;;;;;;;5075776;28;20082;-58
2023/03/30 06:33:10;;;;;;;9.65;2.75;;;;;;;;;;5075342;28;20074;-58
2023/03/30 06:35:36;;;;;;;5.78;2.88;;;;;;;;;;5075151;28;20028;-58
2023/03/30 06:38:03;;;;;;;10.35;3.03;;;;;;;;;;5075376;28;20112;-58
2023/03/30 06:40:29;;;;;;;14.50;1.92;;;;;;;;;;5075540;28;20031;-59
2023/03/30 06:42:55;;;;;;;13.30;2.85;;;;;;;;;;5075212;28;20124;-58
2023/03/30 06:45:22;;;;;;;8.52;3.08;;;;;;;;;;5075672;28;20076;-58
2023/03/30 06:47:48;;;;;;;11.10;2.85;;;;;;;;;;5075751;28;20036;-58
2023/03/30 06:50:14;;;;;;;5.25;1.83;;;;;;;;;;5075017;28;20048;-58
2023/03/30 06:52:40;;;;;;;6.15;2.47;;;;;;;;;;5074766;28;20104;-58
2023/03/30 06:55:06;;;;;;;6.53;2.80;;;;;;;;;;5075035;28;20496;-58
2023/03/30 06:57:32;;;;;;;11.38;2.55;;;;;;;;;;5074925;28;20163;-58
2023/03/30 06:59:58;;;;;;;7.25;2.60;;;;;;;;;;5074948;28;20024;-59
2023/03/30 07:02:25;;;;;;;11.63;3.25;;;;;;;;;;5074715;28;20017;-58
2023/03/30 07:04:51;;;;;;;9.55;2.60;;;;;;;;;;5074581;28;20117;-58
2023/03/30 07:07:17;;;;;;;7.10;1.88;;;;;;;;;;5074473;28;20025;-58
2023/03/30 07:09:43;;;;;;;9.05;3.25;;;;;;;;;;5075022;28;20051;-58
2023/03/30 07:12:09;;;;;;;17.40;3.25;;;;;;;;;;5074638;28;20111;-58
2023/03/30 07:14:35;;;;;;;6.60;2.78;;;;;;;;;;5074650;28;20048;-58
2023/03/30 07:17:01;;;;;;;9.65;2.30;;;;;;;;;;5075080;28;20029;-58
2023/03/30 07:19:27;;;;;;;4.88;2.45;;;;;;;;;;5074515;28;20025;-58
2023/03/30 07:21:53;;;;;;;7.72;3.72;;;;;;;;;;5074349;28;20500;-58
2023/03/30 07:24:19;;;;;;;8.27;3.00;;;;;;;;;;5074376;28;20096;-58
2023/03/30 07:26:45;;;;;;;10.98;3.45;;;;;;;;;;5074945;28;20029;-58
2023/03/30 07:29:11;;;;;;;8.93;2.20;;;;;;;;;;5074934;28;20028;-58
2023/03/30 07:31:37;;;;;;;9.35;2.33;;;;;;;;;;5073019;28;20455;-58
2023/03/30 07:34:03;;;;;;;10.60;2.95;;;;;;;;;;5074120;28;20040;-59
2023/03/30 07:36:29;;;;;;;5.10;2.13;;;;;;;;;;5074851;28;20032;-58
2023/03/30 07:38:58;;;;;;;4.40;1.95;;;;;;;;;;5074172;28;20060;-58
2023/03/30 07:41:24;;;;;;;9.27;2.05;;;;;;;;;;5074592;28;20029;-58
2023/03/30 07:43:50;;;;;;;12.25;2.25;;;;;;;;;;5074663;28;20029;-58
2023/03/30 07:46:16;;;;;;;5.75;2.60;;;;;;;;;;5074041;28;20043;-59
2023/03/30 07:48:42;;;;;;;5.65;2.13;;;;;;;;;;5073911;28;20096;-58
2023/03/30 07:51:10;;;;;;;3.25;1.85;;;;;;;;;;5074027;28;20028;-59
2023/03/30 07:53:36;;;;;;;5.65;2.28;;;;;;;;;;5074332;28;20033;-59
2023/03/30 07:56:03;;;;;;;6.03;2.25;;;;;;;;;;5074062;28;20086;-59
2023/03/30 07:58:29;;;;;;;8.77;2.88;;;;;;;;;;5073885;28;20063;-59
2023/03/30 08:00:55;;;;;;;6.90;2.78;;;;;;;;;;5074423;28;20021;-58
2023/03/30 08:03:21;;;;;;;4.25;2.53;;;;;;;;;;5073952;28;20080;-58
2023/03/30 08:06:03;;;;;;;6.32;1.80;;;;;;;;;;5073900;28;20375;-58
2023/03/30 08:08:29;;;;;;;6.18;2.00;;;;;;;;;;5074763;28;20082;-58
2023/03/30 08:10:55;;;;;;;7.10;2.92;;;;;;;;;;5073821;28;20029;-59
2023/03/30 08:13:21;;;;;;;4.53;2.10;;;;;;;;;;5073695;28;20153;-58
2023/03/30 08:15:47;;;;;;;8.45;2.40;;;;;;;;;;5074229;28;20040;-58
2023/03/30 08:18:14;;;;;;;3.78;1.38;;;;;;;;;;5073716;28;20416;-58
2023/03/30 08:20:41;;;;;;;6.82;3.08;;;;;;;;;;5074028;28;20032;-58
2023/03/30 08:23:07;;;;;;;7.85;2.95;;;;;;;;;;5073681;28;20032;-58
2023/03/30 08:25:34;;;;;;;8.25;2.30;;;;;;;;;;5073636;28;20054;-58
2023/03/30 08:28:01;;;;;;;3.22;1.88;;;;;;;;;;5073445;28;20060;-58
2023/03/30 08:30:27;;;;;;;6.78;2.72;;;;;;;;;;5073584;28;20082;-59
2023/03/30 08:32:53;;;;;;;8.65;2.67;;;;;;;;;;5073812;28;20028;-59
2023/03/30 08:35:20;;;;;;;2.90;1.73;;;;;;;;;;5073671;28;20040;-59
2023/03/30 08:37:46;;;;;;;5.63;2.38;;;;;;;;;;5074110;28;20043;-59
2023/03/30 08:40:13;;;;;;;5.55;2.42;;;;;;;;;;5074109;28;20044;-58
2023/03/30 08:42:49;;;;;;;6.38;1.65;;;;;;;;;;5073608;28;20021;-59
2023/03/30 08:45:15;;;;;;;3.00;2.25;;;;;;;;;;5073680;28;20047;-59
2023/03/30 08:47:43;;;;;;;3.00;1.88;;;;;;;;;;5073699;28;20021;-59
2023/03/30 08:50:12;;;;;;;5.57;2.20;;;;;;;;;;5073419;28;20024;-59
2023/03/30 08:52:40;;;;;;;10.57;3.03;;;;;;;;;;5073665;28;20374;-59
2023/03/30 08:55:10;;;;;;;3.42;2.50;;;;;;;;;;5073338;28;20387;-59
2023/03/30 08:57:46;;;;;;;7.20;2.30;;;;;;;;;;5072989;28;20028;-59
2023/03/30 09:00:26;;;;;;;7.90;2.50;;;;;;;;;;5075402;28;20025;-59
2023/03/30 09:02:55;;;;;;;4.78;2.53;;;;;;;;;;5077144;28;20036;-59
2023/03/30 09:05:25;;;;;;;4.00;2.42;;;;;;;;;;5077431;28;20033;-59
2023/03/30 09:08:03;;;;;;;3.35;1.83;;;;;;;;;;5077096;28;20029;-59
2023/03/30 09:10:31;;;;;;;10.52;2.30;;;;;;;;;;5076701;28;20025;-59
2023/03/30 09:12:58;;;;;;;4.32;2.45;;;;;;;;;;5076881;28;20136;-59
2023/03/30 09:15:24;;;;;;;3.80;1.77;;;;;;;;;;5076874;28;20059;-59
2023/03/30 09:18:00;;;;;;;5.57;2.53;;;;;;;;;;5076622;28;20028;-59
2023/03/30 09:20:30;;;;;;;7.78;3.13;;;;;;;;;;5076889;28;20034;-58
2023/03/30 09:23:00;;;;;;;6.55;2.28;;;;;;;;;;5076685;28;20024;-58
2023/03/30 09:25:35;;;;;;;7.75;2.08;;;;;;;;;;5077499;28;20039;-59
2023/03/30 09:28:08;;;;;;;3.40;1.83;;;;;;;;;;5076647;28;20351;-58
2023/03/30 09:30:38;;;;;;;4.88;1.88;;;;;;;;;;5077005;28;20038;-58
2023/03/30 09:33:20;;;;;;;4.30;1.60;;;;;;;;;;5076951;28;20070;-58
2023/03/30 09:36:09;;;;;;;1.90;1.23;;;;;;;;;;5076452;28;20381;-58
2023/03/30 09:38:40;;;;;;;8.38;1.42;;;;;;;;;;5070597;28;20047;-58
2023/03/30 09:41:21;;;;;;;3.10;1.40;;;;;;;;;;5076931;28;20366;-58
2023/03/30 09:43:48;;;;;;;2.00;1.30;;;;;;;;;;5076041;28;20467;-58
2023/03/30 09:46:15;;;;;;;5.03;1.38;;;;;;;;;;5076221;28;20459;-58
2023/03/30 09:48:42;;;;;;;2.90;1.38;;;;;;;;;;5076520;28;20077;-58
2023/03/30 09:51:14;;;;;;;2.83;1.20;;;;;;;;;;5076560;28;20028;-58
2023/03/30 09:53:42;;;;;;;2.28;1.45;;;;;;;;;;5076688;28;20039;-58
2023/03/30 09:56:10;;;;;;;4.07;1.13;;;;;;;;;;5076391;28;20025;-58
2023/03/30 09:58:36;;;;;;;9.10;1.80;;;;;;;;;;5075933;28;20028;-58
2023/03/30 10:01:11;;;;;;;3.92;1.60;;;;;;;;;;5076257;28;20051;-58
2023/03/30 10:03:37;;;;;;;6.20;1.73;;;;;;;;;;5075987;28;20092;-58
2023/03/30 10:06:08;;;;;;;11.18;2.10;;;;;;;;;;5076287;28;20061;-58
2023/03/30 10:08:41;;;;;;;5.45;1.83;;;;;;;;;;5075918;28;20027;-58
2023/03/30 10:11:07;;;;;;;4.70;1.55;;;;;;;;;;5075387;28;20020;-58
2023/03/30 10:13:36;;;;;;;4.57;2.42;;;;;;;;;;5076276;28;20116;-58
2023/03/30 10:16:04;;;;;;;3.17;1.23;;;;;;;;;;5076700;28;20049;-58
2023/03/30 10:18:36;;;;;;;6.63;1.60;;;;;;;;;;5075699;28;20025;-58
2023/03/30 10:21:04;;;;;;;2.05;1.33;;;;;;;;;;5076332;28;20060;-58
2023/03/30 10:23:43;;;;;;;6.65;1.77;;;;;;;;;;5075611;28;20382;-58
2023/03/30 10:26:18;;;;;;;5.70;1.42;;;;;;;;;;5076115;28;20043;-58
2023/03/30 10:28:59;;;;;;;3.50;2.13;;;;;;;;;;5075800;28;20031;-58
2023/03/30 10:31:26;;;;;;;4.20;2.20;;;;;;;;;;5075477;28;20031;-58
2023/03/30 10:33:54;;;;;;;8.40;1.73;;;;;;;;;;5075276;28;20077;-58
2023/03/30 10:36:21;;;;;;;5.75;2.78;;;;;;;;;;5075767;28;20107;-58
2023/03/30 10:38:47;;;;;;;10.00;2.20;;;;;;;;;;5075129;28;20433;-58
2023/03/30 10:41:15;;;;;;;6.50;2.30;;;;;;;;;;5075205;28;20100;-58
2023/03/30 10:43:41;;;;;;;7.28;1.50;;;;;;;;;;5075212;28;20436;-59
2023/03/30 10:46:12;;;;;;;6.53;1.90;;;;;;;;;;5075585;28;20371;-58
2023/03/30 10:48:47;;;;;;;5.07;2.15;;;;;;;;;;5075337;28;20481;-58
2023/03/30 10:51:13;;;;;;;2.78;1.55;;;;;;;;;;5075574;28;20043;-58
2023/03/30 10:53:43;;;;;;;4.30;2.53;;;;;;;;;;5074972;28;20028;-58
2023/03/30 10:56:15;;;;;;;7.82;2.17;;;;;;;;;;5075035;28;20508;-58
2023/03/30 10:58:51;;;;;;;2.17;1.55;;;;;;;;;;5075489;28;20370;-58
2023/03/30 11:01:33;;;;;;;2.67;1.88;;;;;;;;;;5074840;28;20036;-58
2023/03/30 11:04:02;;;;;;;2.83;1.88;;;;;;;;;;5074803;28;20024;-58
2023/03/30 11:06:31;;;;;;;8.73;2.25;;;;;;;;;;5074822;28;20037;-58
2023/03/30 11:09:00;;;;;;;3.60;2.05;;;;;;;;;;5074765;28;20066;-58
2023/03/30 11:11:55;;;;;;;9.68;2.30;;;;;;;;;;5075189;28;20032;-58
2023/03/30 11:14:25;;;;;;;5.00;1.88;;;;;;;;;;5065446;28;20084;-58
2023/03/30 11:16:56;;;;;;;4.03;2.43;;;;;;;;;;5075497;28;20043;-59
2023/03/30 11:19:28;;;;;;;2.88;2.05;;;;;;;;;;5075288;28;20036;-58
2023/03/30 11:22:13;;;;;;;5.07;1.88;;;;;;;;;;5074478;28;20028;-58
2023/03/30 11:24:41;;;;;;;4.30;1.80;;;;;;;;;;5074390;28;20047;-59
2023/03/30 11:27:13;;;;;;;3.95;2.25;;;;;;;;;;5074950;28;20371;-58
2023/03/30 11:29:46;;;;;;;4.50;2.25;;;;;;;;;;5074912;28;20039;-59
2023/03/30 11:32:29;;;;;;;3.97;2.47;;;;;;;;;;5074395;28;20429;-59
2023/03/30 11:34:58;;;;;;;4.45;2.60;;;;;;;;;;5074161;28;20079;-59
2023/03/30 11:37:43;;;;;;;6.78;2.28;;;;;;;;;;5074630;28;20020;-58
2023/03/30 11:40:15;;;;;;;4.00;2.28;;;;;;;;;;5073900;28;20515;-59
2023/03/30 11:42:41;;;;;;;6.10;2.30;;;;;;;;;;5074162;28;20459;-58
2023/03/30 11:45:17;;;;;;;6.55;2.78;;;;;;;;;;5074628;28;20024;-58
2023/03/30 11:47:54;;;;;;;3.95;2.08;;;;;;;;;;5074284;28;20024;-58
2023/03/30 11:50:26;;;;;;;3.75;1.95;;;;;;;;;;5074330;28;20439;-58
2023/03/30 11:52:52;;;;;;;4.88;3.13;;;;;;;;;;5074298;28;20070;-59
2023/03/30 11:55:32;;;;;;;1.95;1.33;;;;;;;;;;5074224;28;20028;-59
2023/03/30 11:58:13;;;;;;;5.93;2.38;;;;;;;;;;5074263;28;20028;-58
2023/03/30 12:00:48;;;;;;;3.88;2.33;;;;;;;;;;5074117;28;20036;-59
2023/03/30 12:03:33;;;;;;;2.15;1.38;;;;;;;;;;5073852;28;20054;-59
2023/03/30 12:06:11;;;;;;;5.07;2.13;;;;;;;;;;5073834;28;20029;-58
2023/03/30 12:09:01;;;;;;;7.40;3.30;;;;;;;;;;5074121;28;20055;-58
2023/03/30 12:11:48;;;;;;;9.02;1.90;;;;;;;;;;5074438;28;20370;-58
2023/03/30 12:14:37;;;;;;;8.30;2.95;;;;;;;;;;5074047;28;20048;-59
2023/03/30 12:17:17;;;;;;;7.88;2.72;;;;;;;;;;5054198;28;20032;-58
2023/03/30 12:19:47;;;;;;;6.80;2.95;;;;;;;;;;5074078;28;20099;-58
2023/03/30 12:22:23;;;;;;;5.60;2.33;;;;;;;;;;5073421;28;20024;-58
2023/03/30 12:24:58;;;;;;;6.50;2.30;;;;;;;;;;5073959;28;20037;-58
2023/03/30 12:27:26;;;;;;;3.58;2.25;;;;;;;;;;5073874;28;20481;-58
2023/03/30 12:29:53;;;;;;;6.80;2.88;;;;;;;;;;5073273;28;20036;-58
2023/03/30 12:32:21;;;;;;;6.97;3.05;;;;;;;;;;5073652;28;20029;-58
2023/03/30 12:34:47;;;;;;;7.00;3.30;;;;;;;;;;5076724;28;20032;-58
2023/03/30 12:37:33;;;;;;;5.80;2.45;;;;;;;;;;5077977;28;20036;-58
2023/03/30 12:40:04;;;;;;;5.05;2.25;;;;;;;;;;5077570;28;20017;-58
2023/03/30 12:42:35;;;;;;;11.13;3.58;;;;;;;;;;5078153;28;20378;-58
2023/03/30 12:45:19;;;;;;;6.18;2.92;;;;;;;;;;5077521;28;20543;-58
2023/03/30 12:47:45;;;;;;;14.40;2.90;;;;;;;;;;5077531;28;20029;-58
2023/03/30 12:50:30;;;;;;;6.35;2.30;;;;;;;;;;5077891;28;20505;-58
2023/03/30 12:53:07;;;;;;;5.43;2.67;;;;;;;;;;5077389;28;20029;-58
2023/03/30 12:55:40;;;;;;;2.75;2.08;;;;;;;;;;5077874;28;20028;-58
2023/03/30 12:58:12;;;;;;;4.55;1.80;;;;;;;;;;5077703;28;20021;-58
2023/03/30 13:00:43;;;;;;;4.40;2.15;;;;;;;;;;5077837;28;20056;-58
2023/03/30 13:03:28;;;;;;;3.60;1.95;;;;;;;;;;5077657;28;20033;-58
2023/03/30 13:05:56;;;;;;;4.70;1.98;;;;;;;;;;5076754;28;20045;-58
2023/03/30 13:08:38;;;;;;;3.85;2.10;;;;;;;;;;5077004;28;20086;-58
2023/03/30 13:11:06;;;;;;;7.53;1.85;;;;;;;;;;5077364;28;20477;-58
2023/03/30 13:13:49;;;;;;;6.10;3.45;;;;;;;;;;5076863;28;20462;-58
2023/03/30 13:16:35;;;;;;;4.50;2.63;;;;;;;;;;5076700;28;20036;-58
2023/03/30 13:19:12;;;;;;;6.25;2.42;;;;;;;;;;5077575;28;20031;-58
2023/03/30 13:21:49;;;;;;;3.53;1.58;;;;;;;;;;5077529;28;20044;-59
2023/03/30 13:24:21;;;;;;;4.65;2.33;;;;;;;;;;5077228;28;20024;-59
2023/03/30 13:26:47;;;;;;;8.70;2.45;;;;;;;;;;5077367;28;20335;-59
2023/03/30 13:29:15;;;;;;;7.30;1.90;;;;;;;;;;5076335;28;20033;-59
2023/03/30 13:31:50;;;;;;;3.05;1.90;;;;;;;;;;5076490;28;20062;-59
2023/03/30 13:34:23;;;;;;;5.60;2.25;;;;;;;;;;5076588;28;20025;-59
2023/03/30 13:37:02;;;;;;;6.72;1.88;;;;;;;;;;5076330;28;20028;-59
2023/03/30 13:39:39;;;;;;;5.28;2.10;;;;;;;;;;5076225;28;20044;-59
2023/03/30 13:42:24;;;;;;;5.50;2.28;;;;;;;;;;5076694;28;20479;-59
2023/03/30 13:44:53;;;;;;;2.38;1.42;;;;;;;;;;5075967;28;20036;-59
2023/03/30 13:47:28;;;;;;;4.22;2.17;;;;;;;;;;5075769;28;20024;-59
2023/03/30 13:49:58;;;;;;;10.40;2.60;;;;;;;;;;5076349;28;20032;-59
2023/03/30 13:52:35;;;;;;;3.50;2.08;;;;;;;;;;5076521;28;20500;-59
2023/03/30 13:55:02;;;;;;;3.80;1.75;;;;;;;;;;5077026;28;20128;-59
2023/03/30 13:57:38;;;;;;;5.53;1.77;;;;;;;;;;5076205;28;20024;-60
2023/03/30 14:00:20;;;;;;;4.80;2.22;;;;;;;;;;5076155;28;20029;-59
2023/03/30 14:02:48;;;;;;;2.25;1.50;;;;;;;;;;5076342;28;20021;-59
2023/03/30 14:05:22;;;;;;;6.18;2.58;;;;;;;;;;5075839;28;20040;-59
2023/03/30 14:07:48;;;;;;;3.95;1.70;;;;;;;;;;5075472;28;20455;-59
2023/03/30 14:10:16;;;;;;;3.00;1.25;;;;;;;;;;5075697;28;20382;-59
2023/03/30 14:12:43;;;;;;;5.00;2.05;;;;;;;;;;5075426;28;20017;-59
2023/03/30 14:15:14;;;;;;;1.75;1.00;;;;;;;;;;5075896;28;20064;-59
2023/03/30 14:17:40;;;;;;;3.20;1.63;;;;;;;;;;5076210;28;20029;-59
2023/03/30 14:20:16;;;;;;;5.65;2.03;;;;;;;;;;5075931;28;20028;-59
2023/03/30 14:22:44;;;;;;;2.47;1.35;;;;;;;;;;5075414;28;20024;-59
2023/03/30 14:25:22;;;;;;;5.85;1.48;;;;;;;;;;5076205;28;20056;-59
2023/03/30 14:27:48;;;;;;;4.03;1.73;;;;;;;;;;5075781;28;20038;-59
2023/03/30 14:30:19;;;;;;;1.58;0.88;;;;;;;;;;5075576;28;20351;-59
2023/03/30 14:32:45;;;;;;;;;;;;;;;;;;5075971;28;20029;-59
2023/03/30 14:35:15;;;;;;;1.83;0.98;;;;;;;;;;5076254;28;20004;-59
2023/03/30 14:37:43;;;;;;;6.43;1.70;;;;;;;;;;5075386;28;20060;-58
2023/03/30 14:40:14;;;;;;;4.03;1.63;;;;;;;;;;5075176;28;20039;-59
2023/03/30 14:42:40;;;;;;;5.18;0.93;;;;;;;;;;5075283;28;20033;-59
2023/03/30 14:45:07;;;;;;;2.67;1.70;;;;;;;;;;5075360;28;20032;-59
2023/03/30 14:47:33;;;;;;;5.32;1.00;;;;;;;;;;5075102;28;20025;-59
2023/03/30 14:50:02;;;;;;;6.63;1.25;;;;;;;;;;5074946;28;20028;-59
2023/03/30 14:52:33;;;;;;;1.98;0.82;;;;;;;;;;5074895;28;20040;-59
2023/03/30 14:54:59;;;;;;;2.45;0.98;;;;;;;;;;5075049;28;20071;-59
2023/03/30 14:57:26;;;;;;;2.10;1.15;;;;;;;;;;5074337;28;20025;-59